• Join FlightAware (Why Join?)
  • Login
  • US Flag 
02:54AM EST


 

Airport Tracker/Info


-or-


 

Live Flight TrackerFlight Track Log ✈ N85JE ✈ 18-Jul-2014 ✈ KAPF - KGNV

Flight Track Log - Related Links

Times and Time Zones

All times are in EDT time to prevent confusion due to time zone crossing. See the N85JE flight status page for this flight to view local times or setup timezone preferences in your user account.

Time Position Orientation Groundspeed Altitude Reporting Facility
EDT Latitude Longitude Course Direction KTS MPH feet Rate Location/Type
10:39AM 26.2600 -81.7792 343° North 253 291 6,900  Level FlightAware ADS-B (KEYW)
10:40AM 26.2817 -81.7847 355° North 234 269 8,800 4,020 Climbing FlightAware ADS-B (KEYW)
10:41AM 26.3379 -81.7923 353° North 253 291 12,000 3,300 Climbing FlightAware ADS-B (KEYW)
10:41AM 26.4005 -81.8010 353° North 272 313 14,300 2,880 Climbing FlightAware ADS-B (KEYW)
10:42AM 26.4583 -81.8091 353° North 289 333 16,400 2,160 Climbing FlightAware ADS-B (KEYW)
10:43AM 26.5114 -81.8165 353° North 332 382 17,400 660 Climbing FlightAware ADS-B (KEYW)
10:44AM 26.6000 -81.8289 353° North 386 444 17,400  Level FlightAware ADS-B (KEYW)
10:44AM 26.6695 -81.8386 354° North 385 443 17,400  Level FlightAware ADS-B (KEYW)
10:45AM 26.6975 -81.8424 353° North 383 441 17,400  Level FlightAware ADS-B (KMCO)
10:45AM 26.7615 -81.8514 353° North 380 437 17,400  Level FlightAware ADS-B (KEYW)
10:46AM 26.7927 -81.8557 353° North 373 429 17,400  Level FlightAware ADS-B (KEYW)
10:46AM 26.8699 -81.8664 353° North 372 428 17,400  Level FlightAware ADS-B (KMCO)
10:47AM 26.9766 -81.8814 353° North 370 426 17,400  Level FlightAware ADS-B (KMCO)
10:48AM 27.0508 -81.8918 353° North 371 427 17,400  Level FlightAware ADS-B (KMCO)
10:49AM 27.1288 -81.9028 353° North 371 427 17,400  Level FlightAware ADS-B (KMCO)
10:49AM 27.1966 -81.9123 353° North 371 427 17,400  Level FlightAware ADS-B (KMCO)
10:50AM 27.2636 -81.9218 353° North 372 428 17,400  Level FlightAware ADS-B (KMCO)
10:51AM 27.3070 -81.9279 353° North 371 427 17,400  Level FlightAware ADS-B (KEYW)
10:52AM 27.3867 -81.9391 353° North 372 428 17,400  Level FlightAware ADS-B (KMCO)
10:52AM 27.4687 -81.9508 353° North 371 427 17,400  Level FlightAware ADS-B (KMCO)
10:53AM 27.5424 -81.9612 353° North 370 426 17,400  Level FlightAware ADS-B (KMCO)
10:54AM 27.6937 -81.9827 353° North 369 425 17,400  Level FlightAware ADS-B (KMCO)
10:55AM 27.7925 -81.9968 353° North 369 425 17,400  Level FlightAware ADS-B (KMCO)
10:57AM 27.9816 -82.0237 353° North 368 423 17,400  Level FlightAware ADS-B (KMCO)
10:58AM 28.0514 -82.0336 353° North 369 425 17,400  Level FlightAware ADS-B (KMCO)
10:59AM 28.1450 -82.0471 353° North 370 426 17,400  Level FlightAware ADS-B (KMCO)
11:00AM 28.2299 -82.0593 353° North 371 427 17,400  Level FlightAware ADS-B (KMCO)
11:00AM 28.2943 -82.0685 353° North 371 427 17,400  Level FlightAware ADS-B (KMCO)
11:01AM 28.4033 -82.0842 353° North 370 426 17,400  Level FlightAware ADS-B (KMCO)
11:02AM 28.4713 -82.0940 353° North 370 426 17,400  Level FlightAware ADS-B (KMCO)
11:03AM 28.5516 -82.1056 353° North 370 426 17,400 -120 Level FlightAware ADS-B (KMCO)
11:03AM 28.6233 -82.1159 353° North 374 430 17,300 -1,020 Descending FlightAware ADS-B (KMCO)
11:05AM 28.7713 -82.1373 353° North 390 449 15,300 -1,500 Descending FlightAware ADS-B (KMCO)
11:06AM 28.8439 -82.1479 353° North 389 448 14,200 -1,380 Descending FlightAware ADS-B (KMCO)
11:07AM 28.9411 -82.1620 353° North 379 436 12,900 -1,200 Descending FlightAware ADS-B (KMCO)
11:08AM 29.1499 -82.1839 North 365 420 10,900 -1,320 Descending FlightAware ADS-B (KMCO)
11:09AM 29.1997 -82.1861 North 349 402 9,800 -1,980 Descending Jacksonville Center
11:10AM 29.2561 -82.1833 North 352 405 8,500 -1,920 Descending Jacksonville Center
11:10AM 29.2853 -82.1806 North 296 341 7,900 -1,500 Descending Jacksonville Center
11:11AM 29.3314 -82.1803 360° North 306 352 7,000 -1,440 Descending Jacksonville Center
11:11AM 29.3669 -82.1800 360° North 239 275 6,300 -1,620 Descending Jacksonville Center
11:12AM 29.4003 -82.1797 360° North 268 308 5,400 -1,920 Descending Jacksonville Center
11:12AM 29.4358 -82.1819 357° North 249 287 4,400 -1,980 Descending Jacksonville Center
11:13AM 29.4733 -82.1817 360° North 254 292 3,500 -1,980 Descending Jacksonville Center
11:13AM 29.5131 -82.1792 North 278 320 2,400 -1,620 Descending Jacksonville Center
11:14AM 29.5464 -82.1692 15° North 254 292 1,900 -900 Descending Jacksonville Center
11:14AM 29.5756 -82.1667 North 254 292 1,600 -300 Descending Jacksonville Center
11:15AM 29.6111 -82.1664 360° North 248 285 1,600 60 Level Jacksonville Center
11:15AM 29.6361 -82.1686 356° North 185 213 1,700 -240 Climbing Jacksonville Center
11:16AM 29.6694 -82.1850 337° Northwest 122 140 1,300 -360 Descending Jacksonville Center
11:17AM 29.6781 -82.2208 285° West 135 155 1,000 -300 Descending Jacksonville Center
11:18AM 29.6825 -82.2447 282° West 137 158 700 -300 Descending Jacksonville Center